This is the latest recevied weather packets stored in our database for station/object VK5TRM-13. If no packets are shown the sender has not sent any weather packets the latest 10 day(s).
| Time | Temp. | Humidity | Pressure | Rain* | Wind** | Luminosity | Snow |
|---|---|---|---|---|---|---|---|
| 1787505602 | 11.11° C | 82% | 1018.8 hPa | 0 mm | - | - | - |
| 1787504702 | 11.11° C | 82% | 1018.8 hPa | 0 mm | - | - | - |
| 1787503803 | 11.67° C | 81% | 1019.3 hPa | 0 mm | - | - | - |
| 1787502903 | 11.67° C | 81% | 1019.3 hPa | 0 mm | - | - | - |
| 1787502003 | 11.67° C | 80% | 1019.5 hPa | 0 mm | - | - | - |
| 1787501103 | 11.67° C | 80% | 1019.5 hPa | 0 mm | - | - | - |
| 1787500202 | 12.22° C | 77% | 1019.9 hPa | 0 mm | - | - | - |
| 1787499303 | 12.22° C | 77% | 1019.9 hPa | 0 mm | - | - | - |
| 1787498402 | 13.33° C | 72% | 1020.1 hPa | 0 mm | - | - | - |
| 1787497502 | 13.33° C | 72% | 1020.1 hPa | 0 mm | - | - | - |
| 1787496602 | 12.78° C | 76% | 1020.6 hPa | 0 mm | - | - | - |
| 1787495702 | 12.78° C | 77% | 1020.7 hPa | 0 mm | - | - | - |
| 1787494802 | 12.78° C | 77% | 1020.7 hPa | 0 mm | - | - | - |
| 1787493902 | 12.78° C | 77% | 1020.7 hPa | 0 mm | - | - | - |
| 1787493002 | 12.78° C | 76% | 1020.9 hPa | 0 mm | - | - | - |
| 1787492102 | 12.78° C | 76% | 1020.9 hPa | 0 mm | - | - | - |
| 1787491202 | 12.78° C | 78% | 1021.1 hPa | 0 mm | - | - | - |
| 1787490302 | 12.78° C | 78% | 1021.1 hPa | 0 mm | - | - | - |
| 1787489402 | 12.22° C | 78% | 1021.1 hPa | 0 mm | - | - | - |
| 1787488502 | 12.22° C | 78% | 1021.1 hPa | 0 mm | - | - | - |
| 1787487602 | 12.78° C | 76% | 1021.3 hPa | 0 mm | - | - | - |
| 1787486703 | 12.78° C | 76% | 1021.3 hPa | 0 mm | - | - | - |
| 1787485803 | 13.33° C | 74% | 1021.1 hPa | 0 mm | - | - | - |
| 1787484903 | 13.33° C | 74% | 1021.1 hPa | 0 mm | - | - | - |
| 1787484003 | 13.33° C | 74% | 1021.4 hPa | 0 mm | - | - | - |
* Rain latest hour (hover to see other rain measurements)
** Current wind speed in m/s (hover to see current wind gust speed)